< < Back
Terminal Aerodrome Forecast


Current Version              Previous Versions:   1  2  3  4  5  6  7  8  9  

Terminal Aerodrome Forecast

603
FTUS42 KGSP 241700
TAFGSP
TAF
KGSP 241734Z 2418/2518 24008KT P6SM SCT040
     FM241900 25008KT P6SM VCTS SCT045CB
      TEMPO 2420/2423 VRB12G22KT 4SM TSRA BKN025CB
     FM242300 25006KT P6SM VCSH BKN045
     FM250100 00000KT P6SM SCT045
     FM251000 36003KT 5SM BR SCT250
     FM251300 04004KT P6SM FEW045=

Latest METAR

371
SAUS70 KWBC 242000 RRD
MTRGSP
METAR KGSP 241953Z 24006KT 10SM FEW070 FEW100 29/21 A2989 RMK AO2 LTG
DSNT N SLP108 T02890211


USA.gov is the U.S. government's official web portal to all federal, state and local government web resources and services.